sensor_id;sensor_type;location;lat;lon;timestamp;P1;P2;P0
69123;PMS5003;56232;53.384;-2.732;2022-12-20T00:01:37;2;2;
69123;PMS5003;56232;53.384;-2.732;2022-12-20T00:04:03;2;2;
69123;PMS5003;56232;53.384;-2.732;2022-12-20T00:06:28;3;3;
69123;PMS5003;56232;53.384;-2.732;2022-12-20T00:08:54;2;2;
69123;PMS5003;56232;53.384;-2.732;2022-12-20T00:11:19;1;1;
69123;PMS5003;56232;53.384;-2.732;2022-12-20T00:13:45;3;3;
69123;PMS5003;56232;53.384;-2.732;2022-12-20T00:16:14;1;1;
69123;PMS5003;56232;53.384;-2.732;2022-12-20T00:18:37;2;2;
69123;PMS5003;56232;53.384;-2.732;2022-12-20T00:21:03;3;2;
69123;PMS5003;56232;53.384;-2.732;2022-12-20T00:23:28;1;1;
69123;PMS5003;56232;53.384;-2.732;2022-12-20T00:25:58;0;0;
69123;PMS5003;56232;53.384;-2.732;2022-12-20T00:28:19;2;2;
69123;PMS5003;56232;53.384;-2.732;2022-12-20T00:30:45;1;0;
69123;PMS5003;56232;53.384;-2.732;2022-12-20T00:33:10;2;2;
69123;PMS5003;56232;53.384;-2.732;2022-12-20T00:35:40;1;1;
69123;PMS5003;56232;53.384;-2.732;2022-12-20T00:38:02;3;2;
69123;PMS5003;56232;53.384;-2.732;2022-12-20T00:40:27;2;2;
69123;PMS5003;56232;53.384;-2.732;2022-12-20T00:42:58;2;1;
69123;PMS5003;56232;53.384;-2.732;2022-12-20T00:45:18;2;2;
69123;PMS5003;56232;53.384;-2.732;2022-12-20T00:47:44;2;2;
69123;PMS5003;56232;53.384;-2.732;2022-12-20T00:50:09;2;1;
69123;PMS5003;56232;53.384;-2.732;2022-12-20T00:52:35;1;1;
69123;PMS5003;56232;53.384;-2.732;2022-12-20T00:55:01;4;3;
69123;PMS5003;56232;53.384;-2.732;2022-12-20T00:57:26;3;1;
69123;PMS5003;56232;53.384;-2.732;2022-12-20T00:59:52;0;0;
69123;PMS5003;56232;53.384;-2.732;2022-12-20T01:02:23;2;1;
69123;PMS5003;56232;53.384;-2.732;2022-12-20T01:04:43;0;0;
69123;PMS5003;56232;53.384;-2.732;2022-12-20T01:07:09;1;1;
69123;PMS5003;56232;53.384;-2.732;2022-12-20T01:09:35;2;1;
69123;PMS5003;56232;53.384;-2.732;2022-12-20T01:12:01;0;0;
69123;PMS5003;56232;53.384;-2.732;2022-12-20T01:14:26;0;0;
69123;PMS5003;56232;53.384;-2.732;2022-12-20T01:16:52;1;1;
69123;PMS5003;56232;53.384;-2.732;2022-12-20T01:19:18;2;1;
69123;PMS5003;56232;53.384;-2.732;2022-12-20T01:21:43;2;2;
69123;PMS5003;56232;53.384;-2.732;2022-12-20T01:24:09;2;1;
69123;PMS5003;56232;53.384;-2.732;2022-12-20T01:26:35;2;2;
69123;PMS5003;56232;53.384;-2.732;2022-12-20T01:29:00;1;1;
69123;PMS5003;56232;53.384;-2.732;2022-12-20T01:31:27;0;0;
69123;PMS5003;56232;53.384;-2.732;2022-12-20T01:33:51;1;0;
69123;PMS5003;56232;53.384;-2.732;2022-12-20T01:36:18;2;2;
69123;PMS5003;56232;53.384;-2.732;2022-12-20T01:38:42;5;2;
69123;PMS5003;56232;53.384;-2.732;2022-12-20T01:41:08;0;0;
69123;PMS5003;56232;53.384;-2.732;2022-12-20T01:45:59;0;0;
69123;PMS5003;56232;53.384;-2.732;2022-12-20T01:48:25;1;0;
69123;PMS5003;56232;53.384;-2.732;2022-12-20T01:50:50;2;1;
69123;PMS5003;56232;53.384;-2.732;2022-12-20T01:53:16;0;0;
69123;PMS5003;56232;53.384;-2.732;2022-12-20T01:55:42;5;3;
69123;PMS5003;56232;53.384;-2.732;2022-12-20T01:58:08;2;2;
69123;PMS5003;56232;53.384;-2.732;2022-12-20T02:00:33;0;0;
69123;PMS5003;56232;53.384;-2.732;2022-12-20T02:02:59;0;0;
69123;PMS5003;56232;53.384;-2.732;2022-12-20T02:05:24;0;0;
69123;PMS5003;56232;53.384;-2.732;2022-12-20T02:07:51;2;1;
69123;PMS5003;56232;53.384;-2.732;2022-12-20T02:10:15;1;0;
69123;PMS5003;56232;53.384;-2.732;2022-12-20T02:12:42;0;0;
69123;PMS5003;56232;53.384;-2.732;2022-12-20T02:15:11;0;0;
69123;PMS5003;56232;53.384;-2.732;2022-12-20T02:17:36;0;0;
69123;PMS5003;56232;53.384;-2.732;2022-12-20T02:20:03;5;1;
69123;PMS5003;56232;53.384;-2.732;2022-12-20T02:22:25;0;0;
69123;PMS5003;56232;53.384;-2.732;2022-12-20T02:27:19;1;1;
69123;PMS5003;56232;53.384;-2.732;2022-12-20T02:32:07;3;2;
69123;PMS5003;56232;53.384;-2.732;2022-12-20T02:34:32;2;1;
69123;PMS5003;56232;53.384;-2.732;2022-12-20T02:37:02;2;1;
69123;PMS5003;56232;53.384;-2.732;2022-12-20T02:39:23;1;1;
69123;PMS5003;56232;53.384;-2.732;2022-12-20T02:41:49;0;0;
69123;PMS5003;56232;53.384;-2.732;2022-12-20T02:44:20;1;1;
69123;PMS5003;56232;53.384;-2.732;2022-12-20T02:46:40;1;1;
69123;PMS5003;56232;53.384;-2.732;2022-12-20T02:49:06;0;0;
69123;PMS5003;56232;53.384;-2.732;2022-12-20T02:51:30;3;2;
69123;PMS5003;56232;53.384;-2.732;2022-12-20T02:53:57;1;1;
69123;PMS5003;56232;53.384;-2.732;2022-12-20T02:56:27;1;1;
69123;PMS5003;56232;53.384;-2.732;2022-12-20T02:58:49;4;3;
69123;PMS5003;56232;53.384;-2.732;2022-12-20T03:01:15;1;0;
69123;PMS5003;56232;53.384;-2.732;2022-12-20T03:03:39;1;1;
69123;PMS5003;56232;53.384;-2.732;2022-12-20T03:06:05;0;0;
69123;PMS5003;56232;53.384;-2.732;2022-12-20T03:08:30;0;0;
69123;PMS5003;56232;53.384;-2.732;2022-12-20T03:10:56;2;1;
69123;PMS5003;56232;53.384;-2.732;2022-12-20T03:13:22;0;0;
69123;PMS5003;56232;53.384;-2.732;2022-12-20T03:15:47;3;2;
69123;PMS5003;56232;53.384;-2.732;2022-12-20T03:18:13;5;3;
69123;PMS5003;56232;53.384;-2.732;2022-12-20T03:20:39;3;3;
69123;PMS5003;56232;53.384;-2.732;2022-12-20T03:23:04;4;4;
69123;PMS5003;56232;53.384;-2.732;2022-12-20T03:25:30;5;4;
69123;PMS5003;56232;53.384;-2.732;2022-12-20T03:27:56;3;2;
69123;PMS5003;56232;53.384;-2.732;2022-12-20T03:30:21;3;3;
69123;PMS5003;56232;53.384;-2.732;2022-12-20T03:32:47;2;2;
69123;PMS5003;56232;53.384;-2.732;2022-12-20T03:35:12;3;3;
69123;PMS5003;56232;53.384;-2.732;2022-12-20T03:37:38;3;2;
69123;PMS5003;56232;53.384;-2.732;2022-12-20T03:40:04;4;3;
69123;PMS5003;56232;53.384;-2.732;2022-12-20T03:42:29;3;3;
69123;PMS5003;56232;53.384;-2.732;2022-12-20T03:44:56;1;1;
69123;PMS5003;56232;53.384;-2.732;2022-12-20T03:47:21;1;1;
69123;PMS5003;56232;53.384;-2.732;2022-12-20T03:49:47;0;0;
69123;PMS5003;56232;53.384;-2.732;2022-12-20T03:52:12;0;0;
69123;PMS5003;56232;53.384;-2.732;2022-12-20T03:54:38;1;1;
69123;PMS5003;56232;53.384;-2.732;2022-12-20T03:57:04;1;0;
69123;PMS5003;56232;53.384;-2.732;2022-12-20T03:59:29;1;0;
69123;PMS5003;56232;53.384;-2.732;2022-12-20T04:01:55;1;1;
69123;PMS5003;56232;53.384;-2.732;2022-12-20T04:04:21;1;1;
69123;PMS5003;56232;53.384;-2.732;2022-12-20T04:06:46;0;0;
69123;PMS5003;56232;53.384;-2.732;2022-12-20T04:09:12;1;1;
69123;PMS5003;56232;53.384;-2.732;2022-12-20T04:11:38;2;1;
69123;PMS5003;56232;53.384;-2.732;2022-12-20T04:14:03;1;0;
69123;PMS5003;56232;53.384;-2.732;2022-12-20T04:16:29;0;0;
69123;PMS5003;56232;53.384;-2.732;2022-12-20T04:18:55;0;0;
69123;PMS5003;56232;53.384;-2.732;2022-12-20T04:21:21;1;1;
69123;PMS5003;56232;53.384;-2.732;2022-12-20T04:23:46;5;1;
69123;PMS5003;56232;53.384;-2.732;2022-12-20T04:26:11;1;1;
69123;PMS5003;56232;53.384;-2.732;2022-12-20T04:28:37;1;1;
69123;PMS5003;56232;53.384;-2.732;2022-12-20T04:31:03;1;1;
69123;PMS5003;56232;53.384;-2.732;2022-12-20T04:33:28;0;0;
69123;PMS5003;56232;53.384;-2.732;2022-12-20T04:35:54;4;3;
69123;PMS5003;56232;53.384;-2.732;2022-12-20T04:38:20;2;2;
69123;PMS5003;56232;53.384;-2.732;2022-12-20T04:40:47;3;2;
69123;PMS5003;56232;53.384;-2.732;2022-12-20T04:43:11;2;2;
69123;PMS5003;56232;53.384;-2.732;2022-12-20T04:45:37;3;2;
69123;PMS5003;56232;53.384;-2.732;2022-12-20T04:48:08;2;2;
69123;PMS5003;56232;53.384;-2.732;2022-12-20T04:50:28;2;1;
69123;PMS5003;56232;53.384;-2.732;2022-12-20T04:52:53;5;3;
69123;PMS5003;56232;53.384;-2.732;2022-12-20T04:55:19;2;1;
69123;PMS5003;56232;53.384;-2.732;2022-12-20T04:57:45;2;2;
69123;PMS5003;56232;53.384;-2.732;2022-12-20T05:00:16;1;1;
69123;PMS5003;56232;53.384;-2.732;2022-12-20T05:02:36;1;1;
69123;PMS5003;56232;53.384;-2.732;2022-12-20T05:05:02;1;1;
69123;PMS5003;56232;53.384;-2.732;2022-12-20T05:07:28;2;2;
69123;PMS5003;56232;53.384;-2.732;2022-12-20T05:09:53;3;2;
69123;PMS5003;56232;53.384;-2.732;2022-12-20T05:12:19;2;0;
69123;PMS5003;56232;53.384;-2.732;2022-12-20T05:14:45;3;2;
69123;PMS5003;56232;53.384;-2.732;2022-12-20T05:17:11;1;1;
69123;PMS5003;56232;53.384;-2.732;2022-12-20T05:19:36;1;1;
69123;PMS5003;56232;53.384;-2.732;2022-12-20T05:22:02;3;3;
69123;PMS5003;56232;53.384;-2.732;2022-12-20T05:24:28;1;1;
69123;PMS5003;56232;53.384;-2.732;2022-12-20T05:26:53;4;2;
69123;PMS5003;56232;53.384;-2.732;2022-12-20T05:29:19;3;1;
69123;PMS5003;56232;53.384;-2.732;2022-12-20T05:31:45;1;0;
69123;PMS5003;56232;53.384;-2.732;2022-12-20T05:34:11;1;1;
69123;PMS5003;56232;53.384;-2.732;2022-12-20T05:36:36;1;1;
69123;PMS5003;56232;53.384;-2.732;2022-12-20T05:39:02;1;1;
69123;PMS5003;56232;53.384;-2.732;2022-12-20T05:41:27;1;1;
69123;PMS5003;56232;53.384;-2.732;2022-12-20T05:43:53;5;3;
69123;PMS5003;56232;53.384;-2.732;2022-12-20T05:46:19;6;6;
69123;PMS5003;56232;53.384;-2.732;2022-12-20T05:48:44;6;6;
69123;PMS5003;56232;53.384;-2.732;2022-12-20T05:51:10;6;6;
69123;PMS5003;56232;53.384;-2.732;2022-12-20T05:53:36;6;5;
69123;PMS5003;56232;53.384;-2.732;2022-12-20T05:56:02;7;4;
69123;PMS5003;56232;53.384;-2.732;2022-12-20T05:58:28;5;4;
69123;PMS5003;56232;53.384;-2.732;2022-12-20T06:00:53;6;5;
69123;PMS5003;56232;53.384;-2.732;2022-12-20T06:03:19;3;2;
69123;PMS5003;56232;53.384;-2.732;2022-12-20T06:05:44;4;3;
69123;PMS5003;56232;53.384;-2.732;2022-12-20T06:08:10;6;5;
69123;PMS5003;56232;53.384;-2.732;2022-12-20T06:10:35;8;8;
69123;PMS5003;56232;53.384;-2.732;2022-12-20T06:13:01;6;5;
69123;PMS5003;56232;53.384;-2.732;2022-12-20T06:15:27;8;6;
69123;PMS5003;56232;53.384;-2.732;2022-12-20T06:17:52;8;8;
69123;PMS5003;56232;53.384;-2.732;2022-12-20T06:20:18;7;6;
69123;PMS5003;56232;53.384;-2.732;2022-12-20T06:22:44;7;7;
69123;PMS5003;56232;53.384;-2.732;2022-12-20T06:25:10;10;9;
69123;PMS5003;56232;53.384;-2.732;2022-12-20T06:27:35;11;10;
69123;PMS5003;56232;53.384;-2.732;2022-12-20T06:30:01;16;13;
69123;PMS5003;56232;53.384;-2.732;2022-12-20T06:32:26;14;14;
69123;PMS5003;56232;53.384;-2.732;2022-12-20T06:34:51;22;18;
69123;PMS5003;56232;53.384;-2.732;2022-12-20T06:37:16;15;13;
69123;PMS5003;56232;53.384;-2.732;2022-12-20T06:39:42;12;11;
69123;PMS5003;56232;53.384;-2.732;2022-12-20T06:42:07;5;5;
69123;PMS5003;56232;53.384;-2.732;2022-12-20T06:44:33;6;5;
69123;PMS5003;56232;53.384;-2.732;2022-12-20T06:46:58;5;4;
69123;PMS5003;56232;53.384;-2.732;2022-12-20T06:49:24;6;5;
69123;PMS5003;56232;53.384;-2.732;2022-12-20T06:51:50;6;3;
69123;PMS5003;56232;53.384;-2.732;2022-12-20T06:54:16;7;6;
69123;PMS5003;56232;53.384;-2.732;2022-12-20T06:56:41;7;5;
69123;PMS5003;56232;53.384;-2.732;2022-12-20T06:59:07;6;5;
69123;PMS5003;56232;53.384;-2.732;2022-12-20T07:01:33;6;5;
69123;PMS5003;56232;53.384;-2.732;2022-12-20T07:03:58;10;8;
69123;PMS5003;56232;53.384;-2.732;2022-12-20T07:06:24;7;6;
69123;PMS5003;56232;53.384;-2.732;2022-12-20T07:08:49;6;5;
69123;PMS5003;56232;53.384;-2.732;2022-12-20T07:11:15;3;3;
69123;PMS5003;56232;53.384;-2.732;2022-12-20T07:13:41;4;2;
69123;PMS5003;56232;53.384;-2.732;2022-12-20T07:16:06;5;2;
69123;PMS5003;56232;53.384;-2.732;2022-12-20T07:18:32;7;6;
69123;PMS5003;56232;53.384;-2.732;2022-12-20T07:20:58;3;2;
69123;PMS5003;56232;53.384;-2.732;2022-12-20T07:23:24;5;3;
69123;PMS5003;56232;53.384;-2.732;2022-12-20T07:25:52;3;3;
69123;PMS5003;56232;53.384;-2.732;2022-12-20T07:28:15;3;3;
69123;PMS5003;56232;53.384;-2.732;2022-12-20T07:30:41;4;3;
69123;PMS5003;56232;53.384;-2.732;2022-12-20T07:33:06;4;4;
69123;PMS5003;56232;53.384;-2.732;2022-12-20T07:35:32;6;5;
69123;PMS5003;56232;53.384;-2.732;2022-12-20T07:37:58;8;4;
69123;PMS5003;56232;53.384;-2.732;2022-12-20T07:40:23;5;4;
69123;PMS5003;56232;53.384;-2.732;2022-12-20T07:42:49;13;8;
69123;PMS5003;56232;53.384;-2.732;2022-12-20T07:45:14;6;5;
69123;PMS5003;56232;53.384;-2.732;2022-12-20T07:47:39;6;4;
69123;PMS5003;56232;53.384;-2.732;2022-12-20T07:50:05;4;2;
69123;PMS5003;56232;53.384;-2.732;2022-12-20T07:52:30;7;6;
69123;PMS5003;56232;53.384;-2.732;2022-12-20T07:54:57;4;3;
69123;PMS5003;56232;53.384;-2.732;2022-12-20T07:57:22;3;3;
69123;PMS5003;56232;53.384;-2.732;2022-12-20T07:59:48;7;6;
69123;PMS5003;56232;53.384;-2.732;2022-12-20T08:02:14;4;4;
69123;PMS5003;56232;53.384;-2.732;2022-12-20T08:04:38;5;4;
69123;PMS5003;56232;53.384;-2.732;2022-12-20T08:07:04;6;5;
69123;PMS5003;56232;53.384;-2.732;2022-12-20T08:09:30;4;4;
69123;PMS5003;56232;53.384;-2.732;2022-12-20T08:11:55;7;5;
69123;PMS5003;56232;53.384;-2.732;2022-12-20T08:14:25;4;4;
69123;PMS5003;56232;53.384;-2.732;2022-12-20T08:16:46;5;3;
69123;PMS5003;56232;53.384;-2.732;2022-12-20T08:19:11;5;3;
69123;PMS5003;56232;53.384;-2.732;2022-12-20T08:21:37;4;3;
69123;PMS5003;56232;53.384;-2.732;2022-12-20T08:24:03;3;3;
69123;PMS5003;56232;53.384;-2.732;2022-12-20T08:26:28;4;3;
69123;PMS5003;56232;53.384;-2.732;2022-12-20T08:28:55;5;4;
69123;PMS5003;56232;53.384;-2.732;2022-12-20T08:31:20;3;2;
69123;PMS5003;56232;53.384;-2.732;2022-12-20T08:33:46;6;6;
69123;PMS5003;56232;53.384;-2.732;2022-12-20T08:36:12;12;7;
69123;PMS5003;56232;53.384;-2.732;2022-12-20T08:38:37;7;6;
69123;PMS5003;56232;53.384;-2.732;2022-12-20T08:41:03;8;6;
69123;PMS5003;56232;53.384;-2.732;2022-12-20T08:43:33;5;5;
69123;PMS5003;56232;53.384;-2.732;2022-12-20T08:45:53;9;5;
69123;PMS5003;56232;53.384;-2.732;2022-12-20T08:48:19;11;10;
69123;PMS5003;56232;53.384;-2.732;2022-12-20T08:50:44;9;8;
69123;PMS5003;56232;53.384;-2.732;2022-12-20T08:53:09;11;8;
69123;PMS5003;56232;53.384;-2.732;2022-12-20T08:55:35;6;5;
69123;PMS5003;56232;53.384;-2.732;2022-12-20T08:58:00;8;6;
69123;PMS5003;56232;53.384;-2.732;2022-12-20T09:00:26;5;4;
69123;PMS5003;56232;53.384;-2.732;2022-12-20T09:02:52;12;8;
69123;PMS5003;56232;53.384;-2.732;2022-12-20T09:05:22;8;6;
69123;PMS5003;56232;53.384;-2.732;2022-12-20T09:07:43;11;9;
69123;PMS5003;56232;53.384;-2.732;2022-12-20T09:10:09;7;6;
69123;PMS5003;56232;53.384;-2.732;2022-12-20T09:12:35;6;5;
69123;PMS5003;56232;53.384;-2.732;2022-12-20T09:15:00;5;4;
69123;PMS5003;56232;53.384;-2.732;2022-12-20T09:17:25;6;4;
69123;PMS5003;56232;53.384;-2.732;2022-12-20T09:19:51;5;4;
69123;PMS5003;56232;53.384;-2.732;2022-12-20T09:22:16;6;5;
69123;PMS5003;56232;53.384;-2.732;2022-12-20T09:24:42;7;7;
69123;PMS5003;56232;53.384;-2.732;2022-12-20T09:27:08;10;9;
69123;PMS5003;56232;53.384;-2.732;2022-12-20T09:29:33;13;10;
69123;PMS5003;56232;53.384;-2.732;2022-12-20T09:31:58;13;10;
69123;PMS5003;56232;53.384;-2.732;2022-12-20T09:34:24;17;15;
69123;PMS5003;56232;53.384;-2.732;2022-12-20T09:36:49;99;92;
69123;PMS5003;56232;53.384;-2.732;2022-12-20T09:39:15;55;48;
69123;PMS5003;56232;53.384;-2.732;2022-12-20T09:41:41;51;45;
69123;PMS5003;56232;53.384;-2.732;2022-12-20T09:44:11;38;35;
69123;PMS5003;56232;53.384;-2.732;2022-12-20T09:46:32;14;13;
69123;PMS5003;56232;53.384;-2.732;2022-12-20T09:48:58;21;19;
69123;PMS5003;56232;53.384;-2.732;2022-12-20T09:51:28;14;11;
69123;PMS5003;56232;53.384;-2.732;2022-12-20T09:53:50;6;5;
69123;PMS5003;56232;53.384;-2.732;2022-12-20T09:56:14;8;7;
69123;PMS5003;56232;53.384;-2.732;2022-12-20T09:58:44;11;10;
69123;PMS5003;56232;53.384;-2.732;2022-12-20T10:03:31;5;5;
69123;PMS5003;56232;53.384;-2.732;2022-12-20T10:05:57;8;7;
69123;PMS5003;56232;53.384;-2.732;2022-12-20T10:08:23;15;12;
69123;PMS5003;56232;53.384;-2.732;2022-12-20T10:10:50;7;6;
69123;PMS5003;56232;53.384;-2.732;2022-12-20T10:13:16;6;6;
69123;PMS5003;56232;53.384;-2.732;2022-12-20T10:15:39;10;8;
69123;PMS5003;56232;53.384;-2.732;2022-12-20T10:18:12;11;7;
69123;PMS5003;56232;53.384;-2.732;2022-12-20T10:20:31;14;10;
69123;PMS5003;56232;53.384;-2.732;2022-12-20T10:22:56;12;11;
69123;PMS5003;56232;53.384;-2.732;2022-12-20T10:25:21;9;9;
69123;PMS5003;56232;53.384;-2.732;2022-12-20T10:27:46;12;11;
69123;PMS5003;56232;53.384;-2.732;2022-12-20T10:30:12;8;8;
69123;PMS5003;56232;53.384;-2.732;2022-12-20T10:32:37;11;10;
69123;PMS5003;56232;53.384;-2.732;2022-12-20T10:37:28;6;5;
69123;PMS5003;56232;53.384;-2.732;2022-12-20T10:39:55;9;7;
69123;PMS5003;56232;53.384;-2.732;2022-12-20T10:42:24;17;12;
69123;PMS5003;56232;53.384;-2.732;2022-12-20T10:44:45;9;8;
69123;PMS5003;56232;53.384;-2.732;2022-12-20T10:49:37;7;6;
69123;PMS5003;56232;53.384;-2.732;2022-12-20T10:52:07;11;8;
69123;PMS5003;56232;53.384;-2.732;2022-12-20T10:54:30;14;13;
69123;PMS5003;56232;53.384;-2.732;2022-12-20T10:56:54;17;16;
69123;PMS5003;56232;53.384;-2.732;2022-12-20T10:59:22;19;13;
69123;PMS5003;56232;53.384;-2.732;2022-12-20T11:01:45;12;6;
69123;PMS5003;56232;53.384;-2.732;2022-12-20T11:06:41;9;9;
69123;PMS5003;56232;53.384;-2.732;2022-12-20T11:11:26;9;8;
69123;PMS5003;56232;53.384;-2.732;2022-12-20T11:13:51;7;6;
69123;PMS5003;56232;53.384;-2.732;2022-12-20T11:18:44;6;5;
69123;PMS5003;56232;53.384;-2.732;2022-12-20T11:21:12;12;11;
69123;PMS5003;56232;53.384;-2.732;2022-12-20T11:23:36;11;11;
69123;PMS5003;56232;53.384;-2.732;2022-12-20T11:26:03;21;15;
69123;PMS5003;56232;53.384;-2.732;2022-12-20T11:28:30;7;6;
69123;PMS5003;56232;53.384;-2.732;2022-12-20T11:30:52;8;7;
69123;PMS5003;56232;53.384;-2.732;2022-12-20T11:33:21;13;9;
69123;PMS5003;56232;53.384;-2.732;2022-12-20T11:35:45;6;4;
69123;PMS5003;56232;53.384;-2.732;2022-12-20T11:38:09;4;3;
69123;PMS5003;56232;53.384;-2.732;2022-12-20T11:40:35;4;4;
69123;PMS5003;56232;53.384;-2.732;2022-12-20T11:43:02;8;6;
69123;PMS5003;56232;53.384;-2.732;2022-12-20T11:45:26;3;3;
69123;PMS5003;56232;53.384;-2.732;2022-12-20T11:47:55;7;6;
69123;PMS5003;56232;53.384;-2.732;2022-12-20T11:50:19;5;4;
69123;PMS5003;56232;53.384;-2.732;2022-12-20T11:52:42;9;6;
69123;PMS5003;56232;53.384;-2.732;2022-12-20T11:55:14;7;6;
69123;PMS5003;56232;53.384;-2.732;2022-12-20T11:57:34;5;4;
69123;PMS5003;56232;53.384;-2.732;2022-12-20T11:59:59;8;4;
69123;PMS5003;56232;53.384;-2.732;2022-12-20T12:02:25;8;6;
69123;PMS5003;56232;53.384;-2.732;2022-12-20T12:04:50;3;3;
69123;PMS5003;56232;53.384;-2.732;2022-12-20T12:07:15;5;3;
69123;PMS5003;56232;53.384;-2.732;2022-12-20T12:09:51;9;5;
69123;PMS5003;56232;53.384;-2.732;2022-12-20T12:12:08;5;5;
69123;PMS5003;56232;53.384;-2.732;2022-12-20T12:14:41;10;5;
69123;PMS5003;56232;53.384;-2.732;2022-12-20T12:16:58;10;6;
69123;PMS5003;56232;53.384;-2.732;2022-12-20T12:19:22;4;3;
69123;PMS5003;56232;53.384;-2.732;2022-12-20T12:21:49;5;3;
69123;PMS5003;56232;53.384;-2.732;2022-12-20T12:24:16;6;4;
69123;PMS5003;56232;53.384;-2.732;2022-12-20T12:26:39;3;2;
69123;PMS5003;56232;53.384;-2.732;2022-12-20T12:29:05;3;3;
69123;PMS5003;56232;53.384;-2.732;2022-12-20T12:31:31;11;4;
69123;PMS5003;56232;53.384;-2.732;2022-12-20T12:33:59;7;6;
69123;PMS5003;56232;53.384;-2.732;2022-12-20T12:36:25;4;4;
69123;PMS5003;56232;53.384;-2.732;2022-12-20T12:38:55;6;5;
69123;PMS5003;56232;53.384;-2.732;2022-12-20T12:41:21;11;7;
69123;PMS5003;56232;53.384;-2.732;2022-12-20T12:46:08;7;4;
69123;PMS5003;56232;53.384;-2.732;2022-12-20T12:48:34;12;9;
69123;PMS5003;56232;53.384;-2.732;2022-12-20T12:50:54;10;9;
69123;PMS5003;56232;53.384;-2.732;2022-12-20T12:53:19;16;15;
69123;PMS5003;56232;53.384;-2.732;2022-12-20T12:55:50;7;6;
69123;PMS5003;56232;53.384;-2.732;2022-12-20T12:58:14;7;6;
69123;PMS5003;56232;53.384;-2.732;2022-12-20T13:03:04;4;4;
69123;PMS5003;56232;53.384;-2.732;2022-12-20T13:05:29;4;4;
69123;PMS5003;56232;53.384;-2.732;2022-12-20T13:07:52;4;3;
69123;PMS5003;56232;53.384;-2.732;2022-12-20T13:12:46;2;2;
69123;PMS5003;56232;53.384;-2.732;2022-12-20T13:20:00;5;3;
69123;PMS5003;56232;53.384;-2.732;2022-12-20T13:22:26;2;1;
69123;PMS5003;56232;53.384;-2.732;2022-12-20T13:24:53;4;3;
69123;PMS5003;56232;53.384;-2.732;2022-12-20T13:27:22;5;3;
69123;PMS5003;56232;53.384;-2.732;2022-12-20T13:34:36;5;3;
69123;PMS5003;56232;53.384;-2.732;2022-12-20T13:39:30;2;1;
69123;PMS5003;56232;53.384;-2.732;2022-12-20T13:41:52;3;3;
69123;PMS5003;56232;53.384;-2.732;2022-12-20T13:44:32;5;4;
69123;PMS5003;56232;53.384;-2.732;2022-12-20T13:46:45;4;3;
69123;PMS5003;56232;53.384;-2.732;2022-12-20T13:49:08;1;1;
69123;PMS5003;56232;53.384;-2.732;2022-12-20T13:51:33;4;2;
69123;PMS5003;56232;53.384;-2.732;2022-12-20T13:53:59;2;2;
69123;PMS5003;56232;53.384;-2.732;2022-12-20T13:58:50;4;4;
69123;PMS5003;56232;53.384;-2.732;2022-12-20T14:01:15;5;3;
69123;PMS5003;56232;53.384;-2.732;2022-12-20T14:03:41;6;4;
69123;PMS5003;56232;53.384;-2.732;2022-12-20T14:06:08;8;6;
69123;PMS5003;56232;53.384;-2.732;2022-12-20T14:08:38;3;3;
69123;PMS5003;56232;53.384;-2.732;2022-12-20T14:13:23;10;6;
69123;PMS5003;56232;53.384;-2.732;2022-12-20T14:15:48;4;4;
69123;PMS5003;56232;53.384;-2.732;2022-12-20T14:18:15;6;3;
69123;PMS5003;56232;53.384;-2.732;2022-12-20T14:20:40;6;4;
69123;PMS5003;56232;53.384;-2.732;2022-12-20T14:23:08;3;1;
69123;PMS5003;56232;53.384;-2.732;2022-12-20T14:25:34;6;3;
69123;PMS5003;56232;53.384;-2.732;2022-12-20T14:28:01;7;6;
69123;PMS5003;56232;53.384;-2.732;2022-12-20T14:30:24;4;4;
69123;PMS5003;56232;53.384;-2.732;2022-12-20T14:32:48;3;3;
69123;PMS5003;56232;53.384;-2.732;2022-12-20T14:35:17;8;6;
69123;PMS5003;56232;53.384;-2.732;2022-12-20T14:37:39;5;4;
69123;PMS5003;56232;53.384;-2.732;2022-12-20T14:42:31;3;2;
69123;PMS5003;56232;53.384;-2.732;2022-12-20T14:47:23;2;2;
69123;PMS5003;56232;53.384;-2.732;2022-12-20T14:49:48;3;3;
69123;PMS5003;56232;53.384;-2.732;2022-12-20T14:52:19;5;4;
69123;PMS5003;56232;53.384;-2.732;2022-12-20T14:54:41;2;2;
69123;PMS5003;56232;53.384;-2.732;2022-12-20T14:57:10;4;3;
69123;PMS5003;56232;53.384;-2.732;2022-12-20T14:59:30;8;2;
69123;PMS5003;56232;53.384;-2.732;2022-12-20T15:01:56;5;3;
69123;PMS5003;56232;53.384;-2.732;2022-12-20T15:04:29;4;3;
69123;PMS5003;56232;53.384;-2.732;2022-12-20T15:06:46;6;4;
69123;PMS5003;56232;53.384;-2.732;2022-12-20T15:09:12;3;2;
69123;PMS5003;56232;53.384;-2.732;2022-12-20T15:11:37;4;3;
69123;PMS5003;56232;53.384;-2.732;2022-12-20T15:14:04;7;5;
69123;PMS5003;56232;53.384;-2.732;2022-12-20T15:16:29;6;6;
69123;PMS5003;56232;53.384;-2.732;2022-12-20T15:18:54;11;7;
69123;PMS5003;56232;53.384;-2.732;2022-12-20T15:21:22;19;17;
69123;PMS5003;56232;53.384;-2.732;2022-12-20T15:23:45;9;8;
69123;PMS5003;56232;53.384;-2.732;2022-12-20T15:26:11;4;2;
69123;PMS5003;56232;53.384;-2.732;2022-12-20T15:28:36;5;5;
69123;PMS5003;56232;53.384;-2.732;2022-12-20T15:31:07;6;4;
69123;PMS5003;56232;53.384;-2.732;2022-12-20T15:33:28;5;3;
69123;PMS5003;56232;53.384;-2.732;2022-12-20T15:35:52;4;4;
69123;PMS5003;56232;53.384;-2.732;2022-12-20T15:38:18;5;5;
69123;PMS5003;56232;53.384;-2.732;2022-12-20T15:40:44;6;5;
69123;PMS5003;56232;53.384;-2.732;2022-12-20T15:43:11;6;5;
69123;PMS5003;56232;53.384;-2.732;2022-12-20T15:45:34;5;3;
69123;PMS5003;56232;53.384;-2.732;2022-12-20T15:47:59;11;6;
69123;PMS5003;56232;53.384;-2.732;2022-12-20T15:50:25;8;5;
69123;PMS5003;56232;53.384;-2.732;2022-12-20T15:52:50;6;5;
69123;PMS5003;56232;53.384;-2.732;2022-12-20T15:55:16;10;7;
69123;PMS5003;56232;53.384;-2.732;2022-12-20T15:57:41;8;6;
69123;PMS5003;56232;53.384;-2.732;2022-12-20T16:00:08;8;6;
69123;PMS5003;56232;53.384;-2.732;2022-12-20T16:02:33;11;7;
69123;PMS5003;56232;53.384;-2.732;2022-12-20T16:04:58;7;4;
69123;PMS5003;56232;53.384;-2.732;2022-12-20T16:07:23;13;9;
69123;PMS5003;56232;53.384;-2.732;2022-12-20T16:09:49;8;8;
69123;PMS5003;56232;53.384;-2.732;2022-12-20T16:12:14;6;6;
69123;PMS5003;56232;53.384;-2.732;2022-12-20T16:14:40;11;9;
69123;PMS5003;56232;53.384;-2.732;2022-12-20T16:17:05;13;11;
69123;PMS5003;56232;53.384;-2.732;2022-12-20T16:19:36;11;10;
69123;PMS5003;56232;53.384;-2.732;2022-12-20T16:21:57;9;7;
69123;PMS5003;56232;53.384;-2.732;2022-12-20T16:24:22;9;7;
69123;PMS5003;56232;53.384;-2.732;2022-12-20T16:26:48;17;10;
69123;PMS5003;56232;53.384;-2.732;2022-12-20T16:29:13;9;8;
69123;PMS5003;56232;53.384;-2.732;2022-12-20T16:31:40;10;9;
69123;PMS5003;56232;53.384;-2.732;2022-12-20T16:34:05;35;29;
69123;PMS5003;56232;53.384;-2.732;2022-12-20T16:36:30;18;15;
69123;PMS5003;56232;53.384;-2.732;2022-12-20T16:38:55;12;11;
69123;PMS5003;56232;53.384;-2.732;2022-12-20T16:41:21;11;10;
69123;PMS5003;56232;53.384;-2.732;2022-12-20T16:43:52;13;11;
69123;PMS5003;56232;53.384;-2.732;2022-12-20T16:46:12;19;13;
69123;PMS5003;56232;53.384;-2.732;2022-12-20T16:48:37;10;9;
69123;PMS5003;56232;53.384;-2.732;2022-12-20T16:51:05;11;11;
69123;PMS5003;56232;53.384;-2.732;2022-12-20T16:53:28;8;8;
69123;PMS5003;56232;53.384;-2.732;2022-12-20T16:55:54;19;17;
69123;PMS5003;56232;53.384;-2.732;2022-12-20T16:58:20;17;17;
69123;PMS5003;56232;53.384;-2.732;2022-12-20T17:00:45;21;19;
69123;PMS5003;56232;53.384;-2.732;2022-12-20T17:03:11;14;14;
69123;PMS5003;56232;53.384;-2.732;2022-12-20T17:05:36;14;9;
69123;PMS5003;56232;53.384;-2.732;2022-12-20T17:08:02;16;14;